Terminal Aerodrome Forecast
Issued by NWS

Home | Current Version | Previous Version | Text Only | Print | Product List | Glossary On
Versions: 1 2 3 4 5 6 7 8 9 10 11 12 13 14 15
000
FTUS41 KBOX 250537
TAFFMH
TAF
KFMH 250537Z 2506/2606 VRB03KT P6SM FEW200
     FM251400 22008KT P6SM FEW150
     FM251800 22012G19KT P6SM BKN130
     FM260100 22008KT P6SM VCSH BKN003
     FM260500 23006KT 2SM BR BKN003=

USA.gov is the U.S. government's official web portal to all federal, state and local government web resources and services.